createdAt,value
2018-06-02T01:08:41.344Z,16.18
2018-06-02T01:09:44.218Z,16.15
2018-06-02T01:10:47.118Z,16.17
2018-06-02T01:11:49.975Z,16.23
2018-06-02T01:12:53.222Z,16.25
2018-06-02T01:13:56.028Z,16.21
2018-06-02T01:14:59.656Z,16.14
2018-06-02T01:16:02.454Z,16.10
2018-06-02T01:17:05.270Z,16.08
2018-06-02T01:18:08.529Z,16.12
2018-06-02T01:19:11.314Z,16.12
2018-06-02T01:20:14.095Z,16.13
2018-06-02T01:21:17.177Z,16.16
2018-06-02T01:22:19.965Z,16.19
2018-06-02T01:23:22.738Z,16.11
2018-06-02T01:24:25.571Z,16.13
2018-06-02T01:25:28.510Z,16.17
2018-06-02T01:26:31.465Z,16.09
2018-06-02T01:27:34.718Z,16.05
2018-06-02T01:28:37.608Z,16.03
2018-06-02T01:29:40.393Z,16.09
2018-06-02T01:30:43.340Z,16.05
2018-06-02T01:31:46.229Z,16.09
2018-06-02T01:32:49.031Z,16.12
2018-06-02T01:33:52.223Z,16.07
2018-06-02T01:34:55.217Z,16.00
2018-06-02T01:35:58.212Z,16.05
2018-06-02T01:37:01.149Z,16.06
2018-06-02T01:38:04.100Z,16.08
2018-06-02T01:39:07.063Z,16.07
2018-06-02T01:40:10.278Z,16.06
2018-06-02T01:41:13.211Z,16.06
2018-06-02T01:42:16.201Z,16.07
2018-06-02T01:43:19.063Z,16.05
2018-06-02T01:44:22.051Z,16.03
2018-06-02T01:45:25.234Z,16.03
2018-06-02T01:46:28.548Z,16.04
2018-06-02T01:47:31.595Z,16.08
2018-06-02T01:48:34.493Z,16.10
2018-06-02T01:49:37.552Z,16.06
2018-06-02T01:50:40.410Z,16.08
2018-06-02T01:51:43.265Z,16.08
2018-06-02T01:52:46.703Z,16.03
2018-06-02T01:53:50.046Z,16.01
2018-06-02T01:54:53.406Z,16.04
2018-06-02T01:55:57.061Z,16.05
2018-06-02T01:57:00.372Z,16.04
2018-06-02T01:58:04.114Z,16.06
2018-06-02T01:59:07.278Z,16.10
2018-06-02T02:00:10.588Z,16.12
2018-06-02T02:01:13.973Z,16.11
2018-06-02T02:02:17.198Z,16.09
2018-06-02T02:03:20.340Z,16.11
2018-06-02T02:04:23.186Z,16.05
2018-06-02T02:05:26.863Z,15.99
2018-06-02T02:06:29.680Z,15.98
2018-06-02T02:07:32.544Z,15.98
2018-06-02T02:08:35.595Z,15.97
2018-06-02T02:09:38.656Z,15.98
2018-06-02T02:10:42.036Z,15.97
2018-06-02T02:11:45.454Z,15.97
2018-06-02T02:12:48.284Z,15.98
2018-06-02T02:13:51.883Z,15.93
2018-06-02T02:14:54.752Z,15.96
2018-06-02T02:15:57.598Z,15.96
2018-06-02T02:17:00.515Z,15.93
2018-06-02T02:18:03.799Z,15.95
2018-06-02T02:19:06.609Z,15.99
2018-06-02T02:20:09.523Z,16.00
2018-06-02T02:21:12.439Z,15.92
2018-06-02T02:22:15.294Z,15.90
2018-06-02T02:23:18.505Z,15.91
2018-06-02T02:24:21.893Z,15.89
2018-06-02T02:25:24.714Z,15.86
2018-06-02T02:26:27.534Z,15.82
2018-06-02T02:27:30.655Z,15.81
2018-06-02T02:28:33.748Z,15.77
2018-06-02T02:29:36.859Z,15.73
2018-06-02T02:30:40.277Z,15.73
2018-06-02T02:31:43.449Z,15.73
2018-06-02T02:32:46.351Z,15.74
2018-06-02T02:33:49.118Z,15.76
2018-06-02T02:34:52.073Z,15.75
2018-06-02T02:35:55.234Z,15.74
2018-06-02T02:36:58.791Z,15.70
2018-06-02T02:38:01.779Z,15.70
2018-06-02T02:39:04.842Z,15.68
2018-06-02T02:40:07.624Z,15.70
2018-06-02T02:41:12.060Z,15.65
2018-06-02T02:42:14.844Z,15.66
2018-06-02T02:43:18.395Z,15.63
2018-06-02T02:44:21.773Z,15.66
2018-06-02T02:45:24.624Z,15.67
2018-06-02T02:46:27.402Z,15.66
2018-06-02T02:47:30.272Z,15.66
2018-06-02T02:48:33.149Z,15.64
2018-06-02T02:49:36.252Z,15.65
2018-06-02T02:50:39.125Z,15.64
2018-06-02T02:51:41.899Z,15.63
2018-06-02T02:52:44.654Z,15.67
2018-06-02T02:53:47.733Z,15.71
2018-06-02T02:54:50.572Z,15.69
2018-06-02T02:55:53.772Z,15.68
2018-06-02T02:56:56.658Z,15.71
2018-06-02T02:57:59.493Z,15.74
2018-06-02T02:59:02.677Z,15.79
2018-06-02T03:00:05.611Z,15.74
2018-06-02T03:01:08.484Z,15.75
2018-06-02T03:02:11.703Z,15.72
2018-06-02T03:03:14.473Z,15.70
2018-06-02T03:04:17.252Z,15.63
2018-06-02T03:05:20.042Z,15.67
2018-06-02T03:06:23.105Z,15.68
2018-06-02T03:07:25.885Z,15.69
2018-06-02T03:08:29.167Z,15.71
2018-06-02T03:09:32.012Z,15.69
2018-06-02T03:10:34.950Z,15.72
2018-06-02T03:11:37.962Z,15.69
2018-06-02T03:12:40.758Z,15.70
2018-06-02T03:13:43.643Z,15.72
2018-06-02T03:14:46.765Z,15.75
2018-06-02T03:15:49.690Z,15.80
2018-06-02T03:16:52.557Z,15.81
2018-06-02T03:17:55.562Z,15.83
2018-06-02T03:18:58.344Z,15.80
2018-06-02T03:20:01.212Z,15.77
2018-06-02T03:21:04.488Z,15.78
2018-06-02T03:22:07.269Z,15.79
2018-06-02T03:23:10.078Z,15.80
2018-06-02T03:24:12.827Z,15.79
2018-06-02T03:25:15.849Z,15.80
2018-06-02T03:26:18.632Z,15.83
2018-06-02T03:27:21.743Z,15.80
2018-06-02T03:28:24.779Z,15.78
2018-06-02T03:29:27.607Z,15.78
2018-06-02T03:30:31.375Z,15.76
2018-06-02T03:31:34.132Z,15.81
2018-06-02T03:32:36.925Z,15.79
2018-06-02T03:33:40.147Z,15.79
2018-06-02T03:34:43.017Z,15.78
2018-06-02T03:35:45.892Z,15.76
2018-06-02T03:36:48.699Z,15.84
2018-06-02T03:37:51.484Z,15.85
2018-06-02T03:38:54.272Z,15.81
2018-06-02T03:39:57.754Z,15.85
2018-06-02T03:41:00.560Z,15.85
2018-06-02T03:42:03.814Z,15.85
2018-06-02T03:43:07.508Z,15.83
2018-06-02T03:44:10.316Z,15.83
2018-06-02T03:45:13.198Z,15.80
2018-06-02T03:46:16.262Z,15.79
2018-06-02T03:47:19.068Z,15.80
2018-06-02T03:48:21.843Z,15.85
2018-06-02T03:49:24.635Z,15.89
2018-06-02T03:50:27.475Z,15.91
2018-06-02T03:51:30.294Z,15.88
2018-06-02T03:52:33.505Z,15.82
2018-06-02T03:53:36.264Z,15.80
2018-06-02T03:54:39.069Z,15.79
2018-06-02T03:55:41.841Z,15.85
2018-06-02T03:56:44.683Z,15.86
2018-06-02T03:57:47.440Z,15.84
2018-06-02T03:58:50.546Z,15.87
2018-06-02T03:59:53.594Z,15.91
2018-06-02T04:00:56.406Z,15.89
2018-06-02T04:01:59.257Z,15.88
2018-06-02T04:03:02.030Z,15.89
2018-06-02T04:04:04.849Z,15.89
2018-06-02T04:05:07.981Z,15.91
2018-06-02T04:06:10.743Z,15.87
2018-06-02T04:07:13.500Z,15.89
2018-06-02T04:08:16.274Z,15.86
2018-06-02T04:09:19.208Z,15.87
2018-06-02T04:10:21.995Z,15.88
2018-06-02T04:11:25.136Z,15.90
2018-06-02T04:12:27.926Z,15.93
2018-06-02T04:13:30.683Z,15.93
2018-06-02T04:14:33.644Z,15.92
2018-06-02T04:15:36.401Z,15.90
2018-06-02T04:16:39.577Z,15.92
2018-06-02T04:17:44.314Z,15.94
2018-06-02T04:18:47.097Z,15.91
2018-06-02T04:19:49.853Z,15.94
2018-06-02T04:20:52.654Z,15.91
2018-06-02T04:21:55.434Z,15.91
2018-06-02T04:22:58.523Z,15.91
2018-06-02T04:24:01.319Z,15.92
2018-06-02T04:25:04.100Z,15.92
2018-06-02T04:26:06.865Z,15.92
2018-06-02T04:27:09.643Z,15.86
2018-06-02T04:28:12.433Z,15.86
2018-06-02T04:29:15.503Z,15.83
2018-06-02T04:30:18.285Z,15.84
2018-06-02T04:31:21.052Z,15.88
2018-06-02T04:32:23.813Z,15.86
2018-06-02T04:33:26.628Z,15.89
2018-06-02T04:34:29.420Z,15.91
2018-06-02T04:35:32.504Z,15.87
2018-06-02T04:36:35.315Z,15.86
2018-06-02T04:37:38.294Z,15.88
2018-06-02T04:38:41.082Z,15.94
2018-06-02T04:39:43.863Z,15.93
2018-06-02T04:40:46.616Z,15.95
2018-06-02T04:41:49.715Z,15.92
2018-06-02T04:42:52.559Z,15.92
2018-06-02T04:43:55.343Z,15.99
2018-06-02T04:44:58.168Z,15.94
2018-06-02T04:46:00.932Z,15.96
2018-06-02T04:47:03.728Z,15.90
2018-06-02T04:48:06.885Z,15.91
2018-06-02T04:49:10.117Z,15.94
2018-06-02T04:50:12.890Z,15.92
2018-06-02T04:51:16.187Z,15.96
2018-06-02T04:52:18.989Z,15.91
2018-06-02T04:53:21.774Z,15.94
2018-06-02T04:54:24.961Z,15.96
2018-06-02T04:55:27.866Z,15.96
2018-06-02T04:56:30.642Z,15.95
2018-06-02T04:57:33.466Z,15.98
2018-06-02T04:58:36.329Z,16.01
2018-06-02T04:59:39.108Z,15.97
2018-06-02T05:00:42.351Z,15.94
2018-06-02T05:01:45.153Z,15.96
2018-06-02T05:02:48.027Z,15.99
2018-06-02T05:03:50.787Z,16.00
2018-06-02T05:04:53.559Z,16.03
2018-06-02T05:05:56.333Z,16.08
2018-06-02T05:06:59.377Z,16.11
2018-06-02T05:08:02.179Z,16.14
2018-06-02T05:09:05.170Z,16.16
2018-06-02T05:10:07.945Z,16.16
2018-06-02T05:11:10.743Z,16.16
2018-06-02T05:12:13.701Z,16.12
2018-06-02T05:13:16.842Z,16.11
2018-06-02T05:14:19.653Z,16.09
2018-06-02T05:15:22.440Z,16.06
2018-06-02T05:16:25.227Z,16.03
2018-06-02T05:17:28.000Z,16.09
2018-06-02T05:18:30.807Z,16.11
2018-06-02T05:19:33.869Z,16.14
2018-06-02T05:20:36.675Z,16.15
2018-06-02T05:21:40.304Z,16.16
2018-06-02T05:22:43.663Z,16.14
2018-06-02T05:23:46.465Z,16.11
2018-06-02T05:24:49.233Z,16.15
2018-06-02T05:25:52.481Z,16.14
2018-06-02T05:26:55.263Z,16.12
2018-06-02T05:27:58.036Z,16.13
2018-06-02T05:29:00.829Z,16.12
2018-06-02T05:30:03.645Z,16.19
2018-06-02T05:31:06.431Z,16.27
2018-06-02T05:32:09.513Z,16.34
2018-06-02T05:33:12.281Z,16.32
2018-06-02T05:34:15.065Z,16.39
2018-06-02T05:35:17.993Z,16.43
2018-06-02T05:36:20.815Z,16.37
2018-06-02T05:37:23.614Z,16.46
2018-06-02T05:38:26.719Z,16.45
2018-06-02T05:39:29.517Z,16.49
2018-06-02T05:40:32.322Z,16.57
2018-06-02T05:41:35.172Z,16.55
2018-06-02T05:42:37.949Z,16.66
2018-06-02T05:43:40.733Z,16.68
2018-06-02T05:44:43.823Z,16.62
2018-06-02T05:45:46.627Z,16.61
2018-06-02T05:46:49.378Z,16.65
2018-06-02T05:47:52.144Z,16.65
2018-06-02T05:48:54.901Z,16.57
2018-06-02T05:49:57.685Z,16.51
2018-06-02T05:51:00.806Z,16.60
2018-06-02T05:52:03.585Z,16.69
2018-06-02T05:53:06.398Z,16.68
2018-06-02T05:54:09.218Z,16.73
2018-06-02T05:55:12.046Z,16.75
2018-06-02T05:56:14.848Z,16.68
2018-06-02T05:57:18.113Z,16.67
2018-06-02T05:58:20.856Z,16.56
2018-06-02T05:59:23.751Z,16.59
2018-06-02T06:00:26.583Z,16.63
2018-06-02T06:01:29.405Z,16.65
2018-06-02T06:02:32.170Z,16.63
2018-06-02T06:03:35.253Z,16.71
2018-06-02T06:04:38.016Z,16.79
2018-06-02T06:05:40.919Z,16.77
2018-06-02T06:06:43.713Z,16.86
2018-06-02T06:07:46.513Z,16.90
2018-06-02T06:08:49.336Z,17.00
2018-06-02T06:09:52.433Z,17.14
2018-06-02T06:10:55.212Z,17.27
2018-06-02T06:11:58.010Z,17.27
2018-06-02T06:13:00.798Z,17.19
2018-06-02T06:14:03.652Z,17.19
2018-06-02T06:15:06.430Z,17.11
2018-06-02T06:16:10.037Z,16.99
2018-06-02T06:17:12.793Z,16.88
2018-06-02T06:18:15.575Z,16.82
2018-06-02T06:19:18.384Z,16.82
2018-06-02T06:20:21.203Z,16.89
2018-06-02T06:21:23.992Z,16.85
2018-06-02T06:22:27.283Z,16.77
2018-06-02T06:23:30.068Z,16.81
2018-06-02T06:24:32.820Z,16.86
2018-06-02T06:25:35.589Z,16.87
2018-06-02T06:26:38.372Z,16.81
2018-06-02T06:27:41.137Z,16.77
2018-06-02T06:28:44.351Z,16.74
2018-06-02T06:29:47.119Z,16.68
2018-06-02T06:30:49.906Z,16.56
2018-06-02T06:31:52.710Z,16.57
2018-06-02T06:32:55.578Z,16.64
2018-06-02T06:33:58.422Z,16.66
2018-06-02T06:35:01.282Z,16.69
2018-06-02T06:36:04.129Z,16.75
2018-06-02T06:37:06.927Z,16.76
2018-06-02T06:38:09.745Z,16.63
2018-06-02T06:39:12.565Z,16.59
2018-06-02T06:40:15.680Z,16.53
2018-06-02T06:41:18.509Z,16.49
2018-06-02T06:42:21.287Z,16.53
2018-06-02T06:43:24.094Z,16.57
2018-06-02T06:44:26.896Z,16.63
2018-06-02T06:45:29.712Z,16.66
2018-06-02T06:46:32.833Z,16.67
2018-06-02T06:47:35.612Z,16.65
2018-06-02T06:48:38.390Z,16.70
2018-06-02T06:49:41.179Z,16.59
2018-06-02T06:50:44.032Z,16.59
2018-06-02T06:51:46.852Z,16.60
2018-06-02T06:52:49.976Z,16.57
2018-06-02T06:53:52.735Z,16.59
2018-06-02T06:54:55.535Z,16.66
2018-06-02T06:55:58.363Z,16.73
2018-06-02T06:57:01.171Z,16.63
2018-06-02T06:58:03.959Z,16.66
2018-06-02T06:59:07.257Z,16.72
2018-06-02T07:00:10.012Z,16.66
2018-06-02T07:01:12.803Z,16.68
2018-06-02T07:02:15.585Z,16.73
2018-06-02T07:03:18.369Z,16.63
2018-06-02T07:04:21.159Z,16.68
2018-06-02T07:05:24.271Z,16.77
2018-06-02T07:06:27.124Z,16.88
2018-06-02T07:07:29.958Z,17.62
2018-06-02T07:08:33.239Z,17.77
2018-06-02T07:09:36.359Z,17.80
2018-06-02T07:10:39.213Z,17.48
2018-06-02T07:11:42.370Z,17.62
2018-06-02T07:12:45.215Z,17.47
2018-06-02T07:13:48.115Z,17.37
2018-06-02T07:14:50.924Z,17.51
2018-06-02T07:15:53.857Z,17.72
2018-06-02T07:16:56.658Z,17.86
2018-06-02T07:17:59.789Z,17.98
2018-06-02T07:19:02.562Z,17.84
2018-06-02T07:20:05.363Z,17.72
2018-06-02T07:21:08.324Z,17.44
2018-06-02T07:22:11.102Z,17.53
2018-06-02T07:23:13.924Z,17.83
2018-06-02T07:24:17.239Z,17.83
2018-06-02T07:25:20.058Z,17.92
2018-06-02T07:26:23.571Z,17.86
2018-06-02T07:27:26.380Z,17.99
2018-06-02T07:28:29.156Z,17.89
2018-06-02T07:29:31.956Z,17.87
2018-06-02T07:30:35.086Z,17.89
2018-06-02T07:31:37.893Z,18.02
2018-06-02T07:33:54.059Z,17.82
2018-06-02T07:34:57.014Z,17.72
2018-06-02T07:36:00.118Z,17.63
2018-06-02T07:37:03.377Z,17.61
2018-06-02T07:38:07.126Z,17.68
2018-06-02T07:39:09.913Z,17.62
2018-06-02T07:40:13.009Z,17.73
2018-06-02T07:41:15.821Z,17.62
2018-06-02T07:42:18.715Z,17.50
2018-06-02T07:43:21.563Z,17.79
2018-06-02T07:44:24.562Z,17.86
2018-06-02T07:45:27.312Z,18.02
2018-06-02T07:46:30.455Z,18.14
2018-06-02T07:47:33.286Z,18.13
2018-06-02T07:48:36.096Z,18.24
2018-06-02T07:49:38.922Z,18.17
2018-06-02T07:50:41.775Z,18.18
2018-06-02T07:51:44.561Z,18.41
2018-06-02T07:52:48.155Z,18.24
2018-06-02T07:53:50.968Z,18.26
2018-06-02T07:54:53.777Z,18.20
2018-06-02T07:55:56.645Z,18.05
2018-06-02T07:56:59.432Z,18.13
2018-06-02T07:58:02.263Z,18.13
2018-06-02T07:59:05.349Z,17.99
2018-06-02T08:00:08.242Z,18.02
2018-06-02T08:01:11.039Z,17.93
2018-06-02T08:02:13.839Z,17.77
2018-06-02T08:03:16.654Z,17.90
2018-06-02T08:04:19.754Z,18.00
2018-06-02T08:05:23.010Z,17.80
2018-06-02T08:06:25.790Z,17.79
2018-06-02T08:07:28.781Z,17.84
2018-06-02T08:08:31.606Z,17.86
2018-06-02T08:09:34.437Z,17.75
2018-06-02T08:10:37.510Z,18.05
2018-06-02T08:11:40.668Z,17.97
2018-06-02T08:12:43.478Z,17.76
2018-06-02T08:13:46.299Z,18.18
2018-06-02T08:14:49.163Z,18.50
2018-06-02T08:15:52.369Z,18.48
2018-06-02T08:16:55.159Z,18.52
2018-06-02T08:17:58.255Z,18.43
2018-06-02T08:19:01.063Z,18.02
2018-06-02T08:20:03.844Z,17.79
2018-06-02T08:21:06.643Z,17.71
2018-06-02T08:22:10.880Z,17.77
2018-06-02T08:23:14.843Z,17.73
2018-06-02T08:24:18.368Z,17.77
2018-06-02T08:25:21.316Z,17.44
2018-06-02T08:26:24.405Z,17.44
2018-06-02T08:27:27.447Z,17.59
2018-06-02T08:28:30.307Z,17.57
2018-06-02T08:29:33.261Z,17.71
2018-06-02T08:30:36.397Z,17.44
2018-06-02T08:31:39.259Z,17.44
2018-06-02T08:32:42.089Z,17.48
2018-06-02T08:33:44.952Z,17.64
2018-06-02T08:34:48.309Z,17.97
2018-06-02T08:35:51.144Z,17.85
2018-06-02T08:36:54.322Z,17.69
2018-06-02T08:37:57.197Z,17.93
2018-06-02T08:39:00.164Z,17.64
2018-06-02T08:40:03.114Z,17.40
2018-06-02T08:41:06.030Z,17.37
2018-06-02T08:42:08.883Z,17.27
2018-06-02T08:43:11.996Z,17.19
2018-06-02T08:44:14.789Z,17.16
2018-06-02T08:45:17.630Z,17.18
2018-06-02T08:46:20.436Z,17.37
2018-06-02T08:47:23.321Z,17.49
2018-06-02T08:48:26.106Z,17.76
2018-06-02T08:49:29.218Z,17.87
2018-06-02T08:50:32.021Z,18.04
2018-06-02T08:51:34.876Z,17.94
2018-06-02T08:52:37.762Z,17.80
2018-06-02T08:53:40.714Z,17.68
2018-06-02T08:54:43.561Z,17.90
2018-06-02T08:55:46.381Z,18.17
2018-06-02T08:56:49.151Z,18.34
2018-06-02T08:57:51.908Z,18.38
2018-06-02T08:58:54.710Z,18.47
2018-06-02T08:59:58.518Z,18.57
2018-06-02T09:01:01.356Z,18.51
2018-06-02T09:02:04.235Z,18.89
2018-06-02T09:03:07.107Z,19.63
2018-06-02T09:04:09.886Z,19.97
2018-06-02T09:05:12.713Z,19.98
2018-06-02T09:06:15.492Z,20.01
2018-06-02T09:07:19.189Z,19.95
2018-06-02T09:08:22.046Z,20.00
2018-06-02T09:09:25.530Z,20.30
2018-06-02T09:10:28.417Z,20.09
2018-06-02T09:11:31.318Z,20.03
2018-06-02T09:12:34.177Z,19.58
2018-06-02T09:13:37.348Z,19.52
2018-06-02T09:14:40.234Z,19.32
2018-06-02T09:15:43.657Z,19.12
2018-06-02T09:16:46.508Z,19.39
2018-06-02T09:17:49.339Z,19.42
2018-06-02T09:18:52.183Z,19.32
2018-06-02T09:19:56.034Z,19.27
2018-06-02T09:20:59.085Z,19.20
2018-06-02T09:22:01.912Z,19.21
2018-06-02T09:23:05.011Z,19.19
2018-06-02T09:24:07.817Z,19.10
2018-06-02T09:25:10.609Z,18.89
2018-06-02T09:26:14.477Z,18.56
2018-06-02T09:27:17.280Z,18.48
2018-06-02T09:28:20.088Z,18.54
2018-06-02T09:29:23.021Z,18.63
2018-06-02T09:30:25.836Z,18.45
2018-06-02T09:31:28.609Z,18.26
2018-06-02T09:32:31.717Z,18.51
2018-06-02T09:33:34.587Z,18.93
2018-06-02T09:34:37.708Z,18.97
2018-06-02T09:35:41.138Z,19.11
2018-06-02T09:36:43.914Z,19.19
2018-06-02T09:37:46.837Z,19.35
2018-06-02T09:38:50.034Z,19.11
2018-06-02T09:39:52.875Z,19.09
2018-06-02T09:40:55.689Z,19.43
2018-06-02T09:41:58.575Z,19.58
2018-06-02T09:43:01.527Z,19.63
2018-06-02T09:44:04.431Z,19.71
2018-06-02T09:45:07.604Z,19.23
2018-06-02T09:46:10.451Z,19.12
2018-06-02T09:47:13.252Z,19.32
2018-06-02T09:48:16.361Z,19.80
2018-06-02T09:49:19.670Z,20.29
2018-06-02T09:50:22.547Z,20.40
2018-06-02T09:51:25.700Z,20.27
2018-06-02T09:52:28.500Z,20.58
2018-06-02T09:53:31.625Z,20.86
2018-06-02T09:54:34.466Z,21.17
2018-06-02T09:55:37.315Z,21.25
2018-06-02T09:56:40.129Z,21.12
2018-06-02T09:57:43.609Z,21.05
2018-06-02T09:58:46.503Z,21.07
2018-06-02T09:59:49.323Z,21.08
2018-06-02T10:00:52.156Z,20.56
2018-06-02T10:01:54.976Z,20.03
2018-06-02T10:02:57.788Z,19.49
2018-06-02T10:04:01.063Z,19.53
2018-06-02T10:05:03.891Z,19.80
2018-06-02T10:06:06.682Z,19.48
2018-06-02T10:07:09.488Z,19.29
2018-06-02T10:08:12.338Z,19.00
2018-06-02T10:09:15.130Z,18.87
2018-06-02T10:10:18.309Z,18.81
2018-06-02T10:11:21.201Z,18.89
2018-06-02T10:12:24.019Z,18.86
2018-06-02T10:13:26.932Z,18.59
2018-06-02T10:14:29.840Z,18.62
2018-06-02T10:15:32.854Z,18.87
2018-06-02T10:16:36.202Z,19.02
2018-06-02T10:17:39.210Z,19.21
2018-06-02T10:18:42.143Z,19.11
2018-06-02T10:19:45.118Z,18.96
2018-06-02T10:20:47.971Z,18.95
2018-06-02T10:21:50.859Z,18.84
2018-06-02T10:22:53.970Z,18.75
2018-06-02T10:23:56.811Z,18.85
2018-06-02T10:24:59.665Z,18.64
2018-06-02T10:26:02.906Z,18.69
2018-06-02T10:27:05.753Z,18.82
2018-06-02T10:28:08.761Z,19.13
2018-06-02T10:29:12.057Z,19.38
2018-06-02T10:30:14.981Z,19.39
2018-06-02T10:31:17.805Z,19.46
2018-06-02T10:32:20.591Z,19.32
2018-06-02T10:33:23.358Z,19.36
2018-06-02T10:34:26.208Z,19.22
2018-06-02T10:35:29.172Z,19.14
2018-06-02T10:36:32.075Z,18.85
2018-06-02T10:37:34.897Z,18.82
2018-06-02T10:38:37.710Z,19.21
2018-06-02T10:39:40.541Z,19.20
2018-06-02T10:40:43.562Z,19.24
2018-06-02T10:41:46.725Z,19.47
2018-06-02T10:42:49.477Z,19.73
2018-06-02T10:43:52.351Z,19.68
2018-06-02T10:44:55.157Z,19.47
2018-06-02T10:45:58.197Z,19.44
2018-06-02T10:47:01.159Z,19.59
2018-06-02T10:48:04.401Z,19.55
2018-06-02T10:49:07.294Z,19.33
2018-06-02T10:50:10.141Z,19.31
2018-06-02T10:51:13.140Z,19.14
2018-06-02T10:52:16.211Z,19.10
2018-06-02T10:53:19.081Z,19.11
2018-06-02T10:54:22.205Z,19.13
2018-06-02T10:55:25.064Z,18.95
2018-06-02T10:56:27.879Z,18.86
2018-06-02T10:57:30.731Z,19.05
2018-06-02T10:58:33.516Z,19.24
2018-06-02T10:59:36.340Z,19.25
2018-06-02T11:00:39.493Z,19.35
2018-06-02T11:01:42.333Z,19.34
2018-06-02T11:02:45.301Z,19.31
2018-06-02T11:03:48.155Z,19.35
2018-06-02T11:04:51.001Z,19.42
2018-06-02T11:05:53.828Z,19.66
2018-06-02T11:06:57.142Z,19.48
2018-06-02T11:07:59.984Z,19.50
2018-06-02T11:09:02.824Z,19.56
2018-06-02T11:10:05.696Z,19.86
2018-06-02T11:11:08.609Z,20.10
2018-06-02T11:12:11.570Z,20.32
2018-06-02T11:13:14.813Z,20.31
2018-06-02T11:14:17.728Z,20.31
2018-06-02T11:15:20.542Z,20.31
2018-06-02T11:16:23.346Z,20.53
2018-06-02T11:17:26.234Z,20.58
2018-06-02T11:18:29.352Z,20.63
2018-06-02T11:19:32.771Z,20.72
2018-06-02T11:20:36.287Z,20.59
2018-06-02T11:21:39.103Z,20.69
2018-06-02T11:22:42.257Z,20.69
2018-06-02T11:23:45.232Z,20.92
2018-06-02T11:24:48.090Z,21.10
2018-06-02T11:25:51.431Z,21.14
2018-06-02T11:26:54.306Z,21.33
2018-06-02T11:27:57.568Z,21.42
2018-06-02T11:29:00.438Z,21.37
2018-06-02T11:30:03.491Z,21.39
2018-06-02T11:31:06.305Z,20.96
2018-06-02T11:32:09.630Z,20.72
2018-06-02T11:33:12.470Z,20.53
2018-06-02T11:34:15.368Z,20.43
2018-06-02T11:35:18.281Z,20.44
2018-06-02T11:36:21.191Z,20.15
2018-06-02T11:37:23.984Z,20.07
2018-06-02T11:38:27.150Z,19.92
2018-06-02T11:39:30.024Z,19.92
2018-06-02T11:40:32.938Z,19.83
2018-06-02T11:41:35.902Z,19.99
2018-06-02T11:42:38.786Z,20.04
2018-06-02T11:43:41.709Z,19.97
2018-06-02T11:44:44.625Z,20.15
2018-06-02T11:45:48.189Z,20.24
2018-06-02T11:46:51.453Z,20.34
2018-06-02T11:47:54.372Z,20.45
2018-06-02T11:48:57.339Z,20.30
2018-06-02T11:50:01.285Z,20.26
2018-06-02T11:51:04.202Z,20.19
2018-06-02T11:52:07.193Z,20.23
2018-06-02T11:53:10.005Z,20.50
2018-06-02T11:54:13.037Z,20.77
2018-06-02T11:55:15.875Z,20.77
2018-06-02T11:56:19.160Z,20.93
2018-06-02T11:57:22.082Z,20.71
2018-06-02T11:58:25.012Z,20.49
2018-06-02T11:59:27.897Z,20.57
2018-06-02T12:00:31.077Z,20.57
2018-06-02T12:01:34.921Z,20.78
2018-06-02T12:02:38.202Z,21.03
2018-06-02T12:03:41.150Z,21.08
2018-06-02T12:04:44.019Z,21.05
2018-06-02T12:05:46.915Z,21.18
2018-06-02T12:06:49.757Z,21.20
2018-06-02T12:07:52.674Z,21.20
2018-06-02T12:08:55.820Z,21.05
2018-06-02T12:09:58.726Z,21.06
2018-06-02T12:11:01.773Z,21.27
2018-06-02T12:12:04.835Z,21.53
2018-06-02T12:13:07.680Z,21.86
2018-06-02T12:14:10.504Z,22.09
2018-06-02T12:15:13.631Z,21.90
2018-06-02T12:16:16.558Z,21.79
2018-06-02T12:17:19.434Z,21.71
2018-06-02T12:18:22.360Z,21.66
2018-06-02T12:19:25.336Z,21.56
2018-06-02T12:20:28.304Z,21.59
2018-06-02T12:21:31.614Z,21.62
2018-06-02T12:22:34.563Z,21.77
2018-06-02T12:23:37.473Z,21.84
2018-06-02T12:24:40.422Z,22.04
2018-06-02T12:25:43.339Z,22.25
2018-06-02T12:26:46.127Z,22.34
2018-06-02T12:27:49.406Z,22.26
2018-06-02T12:28:52.344Z,22.23
2018-06-02T12:29:55.382Z,22.05
2018-06-02T12:30:58.255Z,22.11
2018-06-02T12:32:01.273Z,22.19
2018-06-02T12:33:04.245Z,22.22
2018-06-02T12:34:07.457Z,22.60
2018-06-02T12:35:10.384Z,22.77
2018-06-02T12:36:13.338Z,23.24
2018-06-02T12:37:16.253Z,23.29
2018-06-02T12:38:19.159Z,23.34
2018-06-02T12:39:22.000Z,23.41
2018-06-02T12:40:25.179Z,23.26
2018-06-02T12:41:29.098Z,22.94
2018-06-02T12:42:32.012Z,23.09
2018-06-02T12:43:37.537Z,23.50
2018-06-02T12:44:40.592Z,23.46
2018-06-02T12:45:43.449Z,23.37
2018-06-02T12:46:46.612Z,22.91
2018-06-02T12:47:49.428Z,22.61
2018-06-02T12:48:52.254Z,22.95
2018-06-02T12:49:55.066Z,23.45
2018-06-02T12:50:57.899Z,23.27
2018-06-02T12:52:00.787Z,23.42
2018-06-02T12:53:04.049Z,23.48
2018-06-02T12:54:06.849Z,23.23
2018-06-02T12:55:09.620Z,23.21
2018-06-02T12:56:12.435Z,23.02
2018-06-02T12:57:15.389Z,23.02
2018-06-02T12:58:18.239Z,23.53
2018-06-02T12:59:21.022Z,23.60
2018-06-02T13:00:23.875Z,23.63
2018-06-02T13:01:26.717Z,24.21
2018-06-02T13:02:29.562Z,24.58
2018-06-02T13:03:32.345Z,24.43
2018-06-02T13:04:35.668Z,24.23
2018-06-02T13:05:38.502Z,24.72
2018-06-02T13:06:41.439Z,25.07
2018-06-02T13:07:44.395Z,24.92
2018-06-02T13:08:47.279Z,24.77
2018-06-02T13:09:50.240Z,24.66
2018-06-02T13:10:55.617Z,24.43
2018-06-02T13:11:59.072Z,24.34
2018-06-02T13:13:02.413Z,24.33
2018-06-02T13:14:05.241Z,24.30
2018-06-02T13:15:08.844Z,24.38
2018-06-02T13:16:11.742Z,24.10
2018-06-02T13:17:14.947Z,24.16
2018-06-02T13:18:20.579Z,24.37
2018-06-02T13:19:23.719Z,24.41
2018-06-02T13:20:28.638Z,24.08
2018-06-02T13:21:33.519Z,23.90
2018-06-02T13:22:36.528Z,23.88
2018-06-02T13:23:39.688Z,23.46
2018-06-02T13:24:43.266Z,23.14
2018-06-02T13:25:46.193Z,22.96
2018-06-02T13:26:49.884Z,22.70
2018-06-02T13:27:52.709Z,22.63
2018-06-02T13:28:56.594Z,22.50
2018-06-02T13:30:00.368Z,22.22
2018-06-02T13:31:03.293Z,22.19
2018-06-02T13:32:06.056Z,21.96
2018-06-02T13:33:08.870Z,21.87
2018-06-02T13:34:11.649Z,21.82
2018-06-02T13:35:14.479Z,21.76
2018-06-02T13:36:18.009Z,21.79
2018-06-02T13:37:21.409Z,21.74
2018-06-02T13:38:24.713Z,21.58
2018-06-02T13:39:27.592Z,21.51
2018-06-02T13:40:30.456Z,21.35
2018-06-02T13:41:33.646Z,21.31
2018-06-02T13:42:36.993Z,21.27
2018-06-02T13:43:39.947Z,21.79
2018-06-02T13:44:42.983Z,22.05
2018-06-02T13:45:45.896Z,21.79
2018-06-02T13:46:48.898Z,21.83
2018-06-02T13:47:51.896Z,22.04
2018-06-02T13:48:55.350Z,22.41
2018-06-02T13:49:58.270Z,23.06
2018-06-02T13:51:01.182Z,23.37
2018-06-02T13:52:04.073Z,23.04
2018-06-02T13:53:06.872Z,22.72
2018-06-02T13:54:13.287Z,22.57
2018-06-02T13:55:17.380Z,22.56
2018-06-02T13:56:20.232Z,22.38
2018-06-02T13:57:23.075Z,21.96
2018-06-02T13:58:25.906Z,22.04
2018-06-02T13:59:28.773Z,21.89
2018-06-02T14:00:31.683Z,21.74
2018-06-02T14:01:34.873Z,21.66
2018-06-02T14:02:37.716Z,21.50
2018-06-02T14:03:40.543Z,21.45
2018-06-02T14:04:43.456Z,21.41
2018-06-02T14:05:46.256Z,21.27
2018-06-02T14:06:49.062Z,21.18
2018-06-02T14:07:52.193Z,21.22
2018-06-02T14:08:54.994Z,21.17
2018-06-02T14:09:57.806Z,21.17
2018-06-02T14:11:00.636Z,21.08
2018-06-02T14:12:03.484Z,20.94
2018-06-02T14:13:06.316Z,20.89
2018-06-02T14:14:10.680Z,21.03
2018-06-02T14:15:13.758Z,21.07
2018-06-02T14:16:18.664Z,21.16
2018-06-02T14:17:21.532Z,21.18
2018-06-02T14:18:24.500Z,21.21
2018-06-02T14:19:27.347Z,21.28
2018-06-02T14:20:30.603Z,21.37
2018-06-02T14:21:33.404Z,21.29
2018-06-02T14:22:36.917Z,21.02
2018-06-02T14:23:40.075Z,20.91
2018-06-02T14:24:43.925Z,20.86
2018-06-02T14:25:46.913Z,20.98
2018-06-02T14:26:50.101Z,20.92
2018-06-02T14:27:52.861Z,20.82
2018-06-02T14:28:55.760Z,20.86
2018-06-02T14:29:58.633Z,20.99
2018-06-02T14:31:01.412Z,21.11
2018-06-02T14:32:04.228Z,21.12
2018-06-02T14:33:07.132Z,20.92
2018-06-02T14:34:09.978Z,20.90
2018-06-02T14:35:12.798Z,20.93
2018-06-02T14:36:16.130Z,21.14
2018-06-02T14:37:18.924Z,21.16
2018-06-02T14:38:21.738Z,21.00
2018-06-02T14:40:47.135Z,21.50
2018-06-02T14:41:49.964Z,21.56